sensor_id;sensor_type;location;lat;lon;timestamp;P1;durP1;ratioP1;P2;durP2;ratioP2
7338;SDS011;33747;49.524;8.390;2023-12-07T00:01:57;14.00;;;9.95;;
7338;SDS011;33747;49.524;8.390;2023-12-07T00:04:23;14.10;;;8.82;;
7338;SDS011;33747;49.524;8.390;2023-12-07T00:06:48;14.90;;;9.98;;
7338;SDS011;33747;49.524;8.390;2023-12-07T00:09:14;21.77;;;9.77;;
7338;SDS011;33747;49.524;8.390;2023-12-07T00:11:40;16.05;;;9.52;;
7338;SDS011;33747;49.524;8.390;2023-12-07T00:14:06;19.30;;;10.85;;
7338;SDS011;33747;49.524;8.390;2023-12-07T00:16:31;17.10;;;10.68;;
7338;SDS011;33747;49.524;8.390;2023-12-07T00:18:56;19.83;;;10.43;;
7338;SDS011;33747;49.524;8.390;2023-12-07T00:21:22;15.30;;;9.77;;
7338;SDS011;33747;49.524;8.390;2023-12-07T00:23:47;18.88;;;10.45;;
7338;SDS011;33747;49.524;8.390;2023-12-07T00:26:12;16.17;;;10.02;;
7338;SDS011;33747;49.524;8.390;2023-12-07T00:28:41;18.25;;;10.90;;
7338;SDS011;33747;49.524;8.390;2023-12-07T00:31:06;15.55;;;10.27;;
7338;SDS011;33747;49.524;8.390;2023-12-07T00:33:33;17.00;;;10.50;;
7338;SDS011;33747;49.524;8.390;2023-12-07T00:35:59;19.63;;;10.40;;
7338;SDS011;33747;49.524;8.390;2023-12-07T00:38:24;23.33;;;11.57;;
7338;SDS011;33747;49.524;8.390;2023-12-07T00:40:49;39.13;;;18.00;;
7338;SDS011;33747;49.524;8.390;2023-12-07T00:43:15;28.77;;;14.48;;
7338;SDS011;33747;49.524;8.390;2023-12-07T00:45:42;30.42;;;14.90;;
7338;SDS011;33747;49.524;8.390;2023-12-07T00:48:07;28.10;;;15.18;;
7338;SDS011;33747;49.524;8.390;2023-12-07T00:50:32;20.20;;;13.02;;
7338;SDS011;33747;49.524;8.390;2023-12-07T00:52:58;24.80;;;12.23;;
7338;SDS011;33747;49.524;8.390;2023-12-07T00:55:23;17.13;;;11.60;;
7338;SDS011;33747;49.524;8.390;2023-12-07T00:57:49;21.73;;;11.90;;
7338;SDS011;33747;49.524;8.390;2023-12-07T01:00:14;22.50;;;11.55;;
7338;SDS011;33747;49.524;8.390;2023-12-07T01:02:40;25.67;;;12.45;;
7338;SDS011;33747;49.524;8.390;2023-12-07T01:05:05;26.40;;;11.20;;
7338;SDS011;33747;49.524;8.390;2023-12-07T01:07:30;19.23;;;11.63;;
7338;SDS011;33747;49.524;8.390;2023-12-07T01:09:56;19.77;;;11.07;;
7338;SDS011;33747;49.524;8.390;2023-12-07T01:12:21;24.83;;;10.82;;
7338;SDS011;33747;49.524;8.390;2023-12-07T01:14:47;22.98;;;12.32;;
7338;SDS011;33747;49.524;8.390;2023-12-07T01:17:12;22.42;;;11.93;;
7338;SDS011;33747;49.524;8.390;2023-12-07T01:19:37;18.75;;;11.02;;
7338;SDS011;33747;49.524;8.390;2023-12-07T01:22:03;23.70;;;13.05;;
7338;SDS011;33747;49.524;8.390;2023-12-07T01:24:29;18.27;;;12.77;;
7338;SDS011;33747;49.524;8.390;2023-12-07T01:26:54;17.48;;;11.25;;
7338;SDS011;33747;49.524;8.390;2023-12-07T01:29:20;21.50;;;12.27;;
7338;SDS011;33747;49.524;8.390;2023-12-07T01:31:45;19.23;;;12.00;;
7338;SDS011;33747;49.524;8.390;2023-12-07T01:34:11;23.08;;;11.52;;
7338;SDS011;33747;49.524;8.390;2023-12-07T01:36:36;20.75;;;13.23;;
7338;SDS011;33747;49.524;8.390;2023-12-07T01:39:02;23.52;;;12.70;;
7338;SDS011;33747;49.524;8.390;2023-12-07T01:41:28;21.63;;;13.23;;
7338;SDS011;33747;49.524;8.390;2023-12-07T01:43:53;26.95;;;13.02;;
7338;SDS011;33747;49.524;8.390;2023-12-07T01:46:19;20.95;;;11.70;;
7338;SDS011;33747;49.524;8.390;2023-12-07T01:48:44;24.08;;;13.23;;
7338;SDS011;33747;49.524;8.390;2023-12-07T01:51:13;18.95;;;11.80;;
7338;SDS011;33747;49.524;8.390;2023-12-07T01:53:39;19.83;;;11.27;;
7338;SDS011;33747;49.524;8.390;2023-12-07T01:56:05;24.45;;;11.45;;
7338;SDS011;33747;49.524;8.390;2023-12-07T01:58:32;19.00;;;11.77;;
7338;SDS011;33747;49.524;8.390;2023-12-07T02:00:57;22.13;;;11.95;;
7338;SDS011;33747;49.524;8.390;2023-12-07T02:03:22;27.92;;;14.48;;
7338;SDS011;33747;49.524;8.390;2023-12-07T02:05:48;23.73;;;12.13;;
7338;SDS011;33747;49.524;8.390;2023-12-07T02:08:14;22.67;;;11.35;;
7338;SDS011;33747;49.524;8.390;2023-12-07T02:10:41;24.52;;;12.63;;
7338;SDS011;33747;49.524;8.390;2023-12-07T02:13:06;20.95;;;11.90;;
7338;SDS011;33747;49.524;8.390;2023-12-07T02:15:33;23.33;;;12.85;;
7338;SDS011;33747;49.524;8.390;2023-12-07T02:20:46;20.08;;;12.10;;
7338;SDS011;33747;49.524;8.390;2023-12-07T02:23:23;20.52;;;12.13;;
7338;SDS011;33747;49.524;8.390;2023-12-07T02:25:51;26.10;;;13.50;;
7338;SDS011;33747;49.524;8.390;2023-12-07T02:28:17;26.42;;;13.57;;
7338;SDS011;33747;49.524;8.390;2023-12-07T02:30:43;25.98;;;13.50;;
7338;SDS011;33747;49.524;8.390;2023-12-07T02:33:08;23.42;;;14.27;;
7338;SDS011;33747;49.524;8.390;2023-12-07T02:35:34;26.73;;;15.18;;
7338;SDS011;33747;49.524;8.390;2023-12-07T02:38:00;26.00;;;13.88;;
7338;SDS011;33747;49.524;8.390;2023-12-07T02:40:27;22.13;;;14.63;;
7338;SDS011;33747;49.524;8.390;2023-12-07T02:42:53;22.88;;;14.60;;
7338;SDS011;33747;49.524;8.390;2023-12-07T02:45:19;34.70;;;14.07;;
7338;SDS011;33747;49.524;8.390;2023-12-07T02:47:45;26.05;;;13.55;;
7338;SDS011;33747;49.524;8.390;2023-12-07T02:50:10;26.20;;;14.30;;
7338;SDS011;33747;49.524;8.390;2023-12-07T02:52:36;26.20;;;13.57;;
7338;SDS011;33747;49.524;8.390;2023-12-07T02:55:02;26.45;;;13.27;;
7338;SDS011;33747;49.524;8.390;2023-12-07T02:57:29;21.45;;;13.50;;
7338;SDS011;33747;49.524;8.390;2023-12-07T02:59:55;23.65;;;13.80;;
7338;SDS011;33747;49.524;8.390;2023-12-07T03:02:22;24.05;;;12.85;;
7338;SDS011;33747;49.524;8.390;2023-12-07T03:04:47;21.50;;;13.07;;
7338;SDS011;33747;49.524;8.390;2023-12-07T03:07:13;20.33;;;11.80;;
7338;SDS011;33747;49.524;8.390;2023-12-07T03:09:39;21.73;;;13.48;;
7338;SDS011;33747;49.524;8.390;2023-12-07T03:12:04;20.90;;;13.27;;
7338;SDS011;33747;49.524;8.390;2023-12-07T03:14:30;27.55;;;13.75;;
7338;SDS011;33747;49.524;8.390;2023-12-07T03:16:55;18.08;;;11.50;;
7338;SDS011;33747;49.524;8.390;2023-12-07T03:19:20;20.48;;;13.07;;
7338;SDS011;33747;49.524;8.390;2023-12-07T03:21:47;22.23;;;13.23;;
7338;SDS011;33747;49.524;8.390;2023-12-07T03:24:12;20.25;;;11.75;;
7338;SDS011;33747;49.524;8.390;2023-12-07T03:26:38;24.10;;;13.25;;
7338;SDS011;33747;49.524;8.390;2023-12-07T03:29:03;20.85;;;12.55;;
7338;SDS011;33747;49.524;8.390;2023-12-07T03:31:29;23.95;;;12.40;;
7338;SDS011;33747;49.524;8.390;2023-12-07T03:33:55;23.30;;;13.18;;
7338;SDS011;33747;49.524;8.390;2023-12-07T03:36:20;19.98;;;12.70;;
7338;SDS011;33747;49.524;8.390;2023-12-07T03:38:46;25.10;;;12.05;;
7338;SDS011;33747;49.524;8.390;2023-12-07T03:41:12;23.33;;;12.77;;
7338;SDS011;33747;49.524;8.390;2023-12-07T03:43:38;24.75;;;14.25;;
7338;SDS011;33747;49.524;8.390;2023-12-07T03:46:04;22.35;;;13.20;;
7338;SDS011;33747;49.524;8.390;2023-12-07T03:48:30;22.55;;;12.95;;
7338;SDS011;33747;49.524;8.390;2023-12-07T03:50:55;22.58;;;13.15;;
7338;SDS011;33747;49.524;8.390;2023-12-07T03:53:22;25.55;;;13.32;;
7338;SDS011;33747;49.524;8.390;2023-12-07T03:55:47;28.52;;;14.15;;
7338;SDS011;33747;49.524;8.390;2023-12-07T03:58:12;24.38;;;12.50;;
7338;SDS011;33747;49.524;8.390;2023-12-07T04:00:38;20.60;;;12.35;;
7338;SDS011;33747;49.524;8.390;2023-12-07T04:03:05;25.98;;;13.75;;
7338;SDS011;33747;49.524;8.390;2023-12-07T04:05:31;23.65;;;11.98;;
7338;SDS011;33747;49.524;8.390;2023-12-07T04:07:56;26.00;;;13.50;;
7338;SDS011;33747;49.524;8.390;2023-12-07T04:10:22;29.27;;;13.27;;
7338;SDS011;33747;49.524;8.390;2023-12-07T04:12:47;25.30;;;13.82;;
7338;SDS011;33747;49.524;8.390;2023-12-07T04:15:13;20.65;;;12.93;;
7338;SDS011;33747;49.524;8.390;2023-12-07T04:17:38;24.35;;;12.85;;
7338;SDS011;33747;49.524;8.390;2023-12-07T04:20:04;26.33;;;12.15;;
7338;SDS011;33747;49.524;8.390;2023-12-07T04:22:30;22.83;;;13.60;;
7338;SDS011;33747;49.524;8.390;2023-12-07T04:24:56;20.35;;;12.25;;
7338;SDS011;33747;49.524;8.390;2023-12-07T04:27:21;30.75;;;14.90;;
7338;SDS011;33747;49.524;8.390;2023-12-07T04:29:46;26.55;;;14.50;;
7338;SDS011;33747;49.524;8.390;2023-12-07T04:32:12;24.98;;;12.90;;
7338;SDS011;33747;49.524;8.390;2023-12-07T04:34:37;26.55;;;13.10;;
7338;SDS011;33747;49.524;8.390;2023-12-07T04:37:03;23.60;;;13.88;;
7338;SDS011;33747;49.524;8.390;2023-12-07T04:39:28;21.98;;;13.38;;
7338;SDS011;33747;49.524;8.390;2023-12-07T04:41:54;25.15;;;13.93;;
7338;SDS011;33747;49.524;8.390;2023-12-07T04:44:19;25.33;;;14.70;;
7338;SDS011;33747;49.524;8.390;2023-12-07T04:46:46;26.25;;;13.93;;
7338;SDS011;33747;49.524;8.390;2023-12-07T04:49:11;25.50;;;13.80;;
7338;SDS011;33747;49.524;8.390;2023-12-07T04:51:37;23.20;;;13.98;;
7338;SDS011;33747;49.524;8.390;2023-12-07T04:54:02;30.85;;;14.05;;
7338;SDS011;33747;49.524;8.390;2023-12-07T04:56:28;22.58;;;13.30;;
7338;SDS011;33747;49.524;8.390;2023-12-07T04:58:53;27.75;;;13.27;;
7338;SDS011;33747;49.524;8.390;2023-12-07T05:01:18;26.77;;;14.18;;
7338;SDS011;33747;49.524;8.390;2023-12-07T05:03:44;26.33;;;14.63;;
7338;SDS011;33747;49.524;8.390;2023-12-07T05:06:10;28.48;;;13.90;;
7338;SDS011;33747;49.524;8.390;2023-12-07T05:08:35;28.20;;;14.45;;
7338;SDS011;33747;49.524;8.390;2023-12-07T05:11:01;21.20;;;12.82;;
7338;SDS011;33747;49.524;8.390;2023-12-07T05:13:26;23.70;;;14.68;;
7338;SDS011;33747;49.524;8.390;2023-12-07T05:15:52;23.20;;;12.40;;
7338;SDS011;33747;49.524;8.390;2023-12-07T05:18:19;24.75;;;12.27;;
7338;SDS011;33747;49.524;8.390;2023-12-07T05:20:44;23.08;;;11.45;;
7338;SDS011;33747;49.524;8.390;2023-12-07T05:23:09;23.20;;;12.20;;
7338;SDS011;33747;49.524;8.390;2023-12-07T05:25:35;29.48;;;13.10;;
7338;SDS011;33747;49.524;8.390;2023-12-07T05:28:00;22.55;;;12.38;;
7338;SDS011;33747;49.524;8.390;2023-12-07T05:30:26;21.38;;;11.75;;
7338;SDS011;33747;49.524;8.390;2023-12-07T05:32:52;23.30;;;11.80;;
7338;SDS011;33747;49.524;8.390;2023-12-07T05:35:18;23.33;;;12.23;;
7338;SDS011;33747;49.524;8.390;2023-12-07T05:37:44;18.65;;;12.15;;
7338;SDS011;33747;49.524;8.390;2023-12-07T05:40:09;21.02;;;13.48;;
7338;SDS011;33747;49.524;8.390;2023-12-07T05:42:37;23.95;;;13.60;;
7338;SDS011;33747;49.524;8.390;2023-12-07T05:45:02;28.70;;;14.85;;
7338;SDS011;33747;49.524;8.390;2023-12-07T05:47:28;31.25;;;15.82;;
7338;SDS011;33747;49.524;8.390;2023-12-07T05:49:53;25.33;;;15.23;;
7338;SDS011;33747;49.524;8.390;2023-12-07T05:52:18;29.60;;;14.63;;
7338;SDS011;33747;49.524;8.390;2023-12-07T05:54:44;29.83;;;15.38;;
7338;SDS011;33747;49.524;8.390;2023-12-07T05:57:11;24.85;;;14.13;;
7338;SDS011;33747;49.524;8.390;2023-12-07T05:59:37;27.38;;;14.13;;
7338;SDS011;33747;49.524;8.390;2023-12-07T06:02:05;23.95;;;13.80;;
7338;SDS011;33747;49.524;8.390;2023-12-07T06:04:30;27.48;;;15.85;;
7338;SDS011;33747;49.524;8.390;2023-12-07T06:06:56;25.25;;;14.15;;
7338;SDS011;33747;49.524;8.390;2023-12-07T06:09:21;23.05;;;14.30;;
7338;SDS011;33747;49.524;8.390;2023-12-07T06:11:47;31.73;;;18.10;;
7338;SDS011;33747;49.524;8.390;2023-12-07T06:14:12;37.80;;;20.23;;
7338;SDS011;33747;49.524;8.390;2023-12-07T06:16:38;28.40;;;16.70;;
7338;SDS011;33747;49.524;8.390;2023-12-07T06:19:03;34.70;;;16.45;;
7338;SDS011;33747;49.524;8.390;2023-12-07T06:21:29;33.03;;;16.42;;
7338;SDS011;33747;49.524;8.390;2023-12-07T06:23:55;32.42;;;16.95;;
7338;SDS011;33747;49.524;8.390;2023-12-07T06:26:20;32.22;;;17.67;;
7338;SDS011;33747;49.524;8.390;2023-12-07T06:28:46;31.88;;;16.25;;
7338;SDS011;33747;49.524;8.390;2023-12-07T06:31:12;31.33;;;16.88;;
7338;SDS011;33747;49.524;8.390;2023-12-07T06:33:37;30.58;;;15.98;;
7338;SDS011;33747;49.524;8.390;2023-12-07T06:36:03;25.58;;;15.30;;
7338;SDS011;33747;49.524;8.390;2023-12-07T06:38:29;28.08;;;16.75;;
7338;SDS011;33747;49.524;8.390;2023-12-07T06:40:54;26.75;;;16.08;;
7338;SDS011;33747;49.524;8.390;2023-12-07T06:43:21;30.92;;;16.83;;
7338;SDS011;33747;49.524;8.390;2023-12-07T06:45:47;21.52;;;14.75;;
7338;SDS011;33747;49.524;8.390;2023-12-07T06:48:12;29.35;;;16.63;;
7338;SDS011;33747;49.524;8.390;2023-12-07T06:50:38;25.67;;;15.15;;
7338;SDS011;33747;49.524;8.390;2023-12-07T06:53:04;31.15;;;15.73;;
7338;SDS011;33747;49.524;8.390;2023-12-07T06:55:29;27.13;;;16.02;;
7338;SDS011;33747;49.524;8.390;2023-12-07T06:57:54;26.75;;;14.75;;
7338;SDS011;33747;49.524;8.390;2023-12-07T07:00:20;26.20;;;14.60;;
7338;SDS011;33747;49.524;8.390;2023-12-07T07:02:47;26.65;;;15.68;;
7338;SDS011;33747;49.524;8.390;2023-12-07T07:05:15;29.08;;;15.80;;
7338;SDS011;33747;49.524;8.390;2023-12-07T07:07:41;22.25;;;13.90;;
7338;SDS011;33747;49.524;8.390;2023-12-07T07:10:06;28.85;;;14.60;;
7338;SDS011;33747;49.524;8.390;2023-12-07T07:12:34;29.55;;;15.68;;
7338;SDS011;33747;49.524;8.390;2023-12-07T07:15:00;24.83;;;15.00;;
7338;SDS011;33747;49.524;8.390;2023-12-07T07:17:26;26.85;;;13.85;;
7338;SDS011;33747;49.524;8.390;2023-12-07T07:19:52;27.25;;;14.60;;
7338;SDS011;33747;49.524;8.390;2023-12-07T07:22:17;21.05;;;13.20;;
7338;SDS011;33747;49.524;8.390;2023-12-07T07:24:45;22.05;;;14.38;;
7338;SDS011;33747;49.524;8.390;2023-12-07T07:27:12;29.60;;;15.13;;
7338;SDS011;33747;49.524;8.390;2023-12-07T07:29:37;30.40;;;15.88;;
7338;SDS011;33747;49.524;8.390;2023-12-07T07:32:04;42.58;;;22.60;;
7338;SDS011;33747;49.524;8.390;2023-12-07T07:34:30;41.30;;;20.00;;
7338;SDS011;33747;49.524;8.390;2023-12-07T07:36:56;32.47;;;19.00;;
7338;SDS011;33747;49.524;8.390;2023-12-07T07:39:21;35.58;;;18.85;;
7338;SDS011;33747;49.524;8.390;2023-12-07T07:41:47;27.25;;;17.25;;
7338;SDS011;33747;49.524;8.390;2023-12-07T07:44:12;36.17;;;18.48;;
7338;SDS011;33747;49.524;8.390;2023-12-07T07:46:40;33.08;;;17.92;;
7338;SDS011;33747;49.524;8.390;2023-12-07T07:49:05;29.75;;;18.60;;
7338;SDS011;33747;49.524;8.390;2023-12-07T07:51:31;27.75;;;16.95;;
7338;SDS011;33747;49.524;8.390;2023-12-07T07:53:57;37.35;;;18.88;;
7338;SDS011;33747;49.524;8.390;2023-12-07T07:56:23;29.95;;;18.75;;
7338;SDS011;33747;49.524;8.390;2023-12-07T07:58:49;28.25;;;16.40;;
7338;SDS011;33747;49.524;8.390;2023-12-07T08:01:14;32.60;;;18.88;;
7338;SDS011;33747;49.524;8.390;2023-12-07T08:03:39;29.38;;;17.73;;
7338;SDS011;33747;49.524;8.390;2023-12-07T08:06:06;32.92;;;17.98;;
7338;SDS011;33747;49.524;8.390;2023-12-07T08:08:31;38.28;;;18.02;;
7338;SDS011;33747;49.524;8.390;2023-12-07T08:10:57;52.30;;;19.83;;
7338;SDS011;33747;49.524;8.390;2023-12-07T08:13:22;37.65;;;17.90;;
7338;SDS011;33747;49.524;8.390;2023-12-07T08:15:48;28.35;;;17.08;;
7338;SDS011;33747;49.524;8.390;2023-12-07T08:18:13;32.80;;;17.98;;
7338;SDS011;33747;49.524;8.390;2023-12-07T08:20:39;36.85;;;18.98;;
7338;SDS011;33747;49.524;8.390;2023-12-07T08:23:04;33.28;;;17.73;;
7338;SDS011;33747;49.524;8.390;2023-12-07T08:25:30;36.20;;;19.20;;
7338;SDS011;33747;49.524;8.390;2023-12-07T08:27:57;34.65;;;19.45;;
7338;SDS011;33747;49.524;8.390;2023-12-07T08:30:22;38.72;;;20.65;;
7338;SDS011;33747;49.524;8.390;2023-12-07T08:32:47;88.10;;;22.27;;
7338;SDS011;33747;49.524;8.390;2023-12-07T08:35:13;66.72;;;21.40;;
7338;SDS011;33747;49.524;8.390;2023-12-07T08:37:38;65.70;;;24.13;;
7338;SDS011;33747;49.524;8.390;2023-12-07T08:40:04;93.28;;;24.88;;
7338;SDS011;33747;49.524;8.390;2023-12-07T08:42:30;103.53;;;27.23;;
7338;SDS011;33747;49.524;8.390;2023-12-07T08:44:57;109.47;;;28.48;;
7338;SDS011;33747;49.524;8.390;2023-12-07T08:47:22;67.30;;;27.30;;
7338;SDS011;33747;49.524;8.390;2023-12-07T08:49:47;102.55;;;25.67;;
7338;SDS011;33747;49.524;8.390;2023-12-07T08:52:13;71.53;;;25.08;;
7338;SDS011;33747;49.524;8.390;2023-12-07T08:54:39;66.88;;;25.95;;
7338;SDS011;33747;49.524;8.390;2023-12-07T08:57:05;66.30;;;23.73;;
7338;SDS011;33747;49.524;8.390;2023-12-07T08:59:30;58.92;;;24.80;;
7338;SDS011;33747;49.524;8.390;2023-12-07T09:01:56;70.10;;;22.02;;
7338;SDS011;33747;49.524;8.390;2023-12-07T09:04:21;46.58;;;22.95;;
7338;SDS011;33747;49.524;8.390;2023-12-07T09:06:46;52.67;;;24.25;;
7338;SDS011;33747;49.524;8.390;2023-12-07T09:09:12;48.53;;;24.05;;
7338;SDS011;33747;49.524;8.390;2023-12-07T09:11:39;67.13;;;23.33;;
7338;SDS011;33747;49.524;8.390;2023-12-07T09:14:04;80.50;;;23.90;;
7338;SDS011;33747;49.524;8.390;2023-12-07T09:16:29;94.60;;;22.30;;
7338;SDS011;33747;49.524;8.390;2023-12-07T09:18:56;128.82;;;22.42;;
7338;SDS011;33747;49.524;8.390;2023-12-07T09:21:21;137.15;;;22.40;;
7338;SDS011;33747;49.524;8.390;2023-12-07T09:23:47;246.23;;;24.75;;
7338;SDS011;33747;49.524;8.390;2023-12-07T09:26:12;117.80;;;23.98;;
7338;SDS011;33747;49.524;8.390;2023-12-07T09:28:38;158.38;;;22.77;;
7338;SDS011;33747;49.524;8.390;2023-12-07T09:31:05;156.98;;;25.20;;
7338;SDS011;33747;49.524;8.390;2023-12-07T09:33:32;146.02;;;27.83;;
7338;SDS011;33747;49.524;8.390;2023-12-07T09:35:57;201.43;;;23.42;;
7338;SDS011;33747;49.524;8.390;2023-12-07T09:38:22;155.75;;;24.13;;
7338;SDS011;33747;49.524;8.390;2023-12-07T09:40:52;125.32;;;23.45;;
7338;SDS011;33747;49.524;8.390;2023-12-07T09:43:17;118.82;;;25.90;;
7338;SDS011;33747;49.524;8.390;2023-12-07T09:45:44;101.35;;;24.58;;
7338;SDS011;33747;49.524;8.390;2023-12-07T09:48:10;56.35;;;23.23;;
7338;SDS011;33747;49.524;8.390;2023-12-07T09:50:35;58.47;;;23.02;;
7338;SDS011;33747;49.524;8.390;2023-12-07T09:53:01;53.33;;;21.35;;
7338;SDS011;33747;49.524;8.390;2023-12-07T09:55:27;42.15;;;21.92;;
7338;SDS011;33747;49.524;8.390;2023-12-07T09:57:53;53.83;;;21.40;;
7338;SDS011;33747;49.524;8.390;2023-12-07T10:00:21;46.67;;;21.83;;
7338;SDS011;33747;49.524;8.390;2023-12-07T10:02:47;65.07;;;21.30;;
7338;SDS011;33747;49.524;8.390;2023-12-07T10:05:13;97.88;;;23.08;;
7338;SDS011;33747;49.524;8.390;2023-12-07T10:07:41;67.43;;;22.90;;
7338;SDS011;33747;49.524;8.390;2023-12-07T10:10:07;81.15;;;23.45;;
7338;SDS011;33747;49.524;8.390;2023-12-07T10:12:34;83.90;;;26.58;;
7338;SDS011;33747;49.524;8.390;2023-12-07T10:15:00;65.47;;;24.13;;
7338;SDS011;33747;49.524;8.390;2023-12-07T10:17:47;59.53;;;23.48;;
7338;SDS011;33747;49.524;8.390;2023-12-07T10:20:16;57.95;;;23.30;;
7338;SDS011;33747;49.524;8.390;2023-12-07T10:22:43;45.50;;;22.90;;
7338;SDS011;33747;49.524;8.390;2023-12-07T10:25:10;48.03;;;20.67;;
7338;SDS011;33747;49.524;8.390;2023-12-07T10:27:35;49.50;;;22.17;;
7338;SDS011;33747;49.524;8.390;2023-12-07T10:30:03;50.97;;;22.13;;
7338;SDS011;33747;49.524;8.390;2023-12-07T10:32:31;51.20;;;21.65;;
7338;SDS011;33747;49.524;8.390;2023-12-07T10:34:57;48.28;;;21.33;;
7338;SDS011;33747;49.524;8.390;2023-12-07T10:37:27;56.33;;;22.17;;
7338;SDS011;33747;49.524;8.390;2023-12-07T10:39:53;49.83;;;22.92;;
7338;SDS011;33747;49.524;8.390;2023-12-07T10:42:20;50.05;;;24.23;;
7338;SDS011;33747;49.524;8.390;2023-12-07T10:44:49;51.63;;;25.08;;
7338;SDS011;33747;49.524;8.390;2023-12-07T10:47:15;60.45;;;26.67;;
7338;SDS011;33747;49.524;8.390;2023-12-07T10:49:42;59.25;;;24.90;;
7338;SDS011;33747;49.524;8.390;2023-12-07T10:52:10;60.25;;;21.65;;
7338;SDS011;33747;49.524;8.390;2023-12-07T10:54:56;52.25;;;22.05;;
7338;SDS011;33747;49.524;8.390;2023-12-07T10:57:33;46.47;;;22.38;;
7338;SDS011;33747;49.524;8.390;2023-12-07T10:59:59;43.42;;;21.58;;
7338;SDS011;33747;49.524;8.390;2023-12-07T11:02:27;55.45;;;22.02;;
7338;SDS011;33747;49.524;8.390;2023-12-07T11:04:54;68.03;;;22.35;;
7338;SDS011;33747;49.524;8.390;2023-12-07T11:07:20;57.53;;;23.85;;
7338;SDS011;33747;49.524;8.390;2023-12-07T11:09:48;68.97;;;23.02;;
7338;SDS011;33747;49.524;8.390;2023-12-07T11:12:20;60.90;;;22.65;;
7338;SDS011;33747;49.524;8.390;2023-12-07T11:14:52;61.88;;;22.08;;
7338;SDS011;33747;49.524;8.390;2023-12-07T11:17:18;62.15;;;25.05;;
7338;SDS011;33747;49.524;8.390;2023-12-07T11:19:47;56.00;;;24.83;;
7338;SDS011;33747;49.524;8.390;2023-12-07T11:22:12;54.75;;;24.95;;
7338;SDS011;33747;49.524;8.390;2023-12-07T11:24:57;57.17;;;23.30;;
7338;SDS011;33747;49.524;8.390;2023-12-07T11:27:26;75.07;;;23.02;;
7338;SDS011;33747;49.524;8.390;2023-12-07T11:29:54;50.25;;;24.52;;
7338;SDS011;33747;49.524;8.390;2023-12-07T11:32:19;54.67;;;24.85;;
7338;SDS011;33747;49.524;8.390;2023-12-07T11:34:45;50.00;;;23.63;;
7338;SDS011;33747;49.524;8.390;2023-12-07T11:37:11;51.83;;;25.15;;
7338;SDS011;33747;49.524;8.390;2023-12-07T11:39:40;53.55;;;25.52;;
7338;SDS011;33747;49.524;8.390;2023-12-07T11:42:15;41.77;;;18.60;;
7338;SDS011;33747;49.524;8.390;2023-12-07T11:44:41;48.70;;;24.25;;
7338;SDS011;33747;49.524;8.390;2023-12-07T11:47:08;49.13;;;24.33;;
7338;SDS011;33747;49.524;8.390;2023-12-07T11:49:34;50.25;;;24.48;;
7338;SDS011;33747;49.524;8.390;2023-12-07T11:52:00;55.45;;;25.95;;
7338;SDS011;33747;49.524;8.390;2023-12-07T11:54:26;53.63;;;26.50;;
7338;SDS011;33747;49.524;8.390;2023-12-07T11:56:52;56.20;;;26.15;;
7338;SDS011;33747;49.524;8.390;2023-12-07T11:59:18;59.00;;;27.10;;
7338;SDS011;33747;49.524;8.390;2023-12-07T12:01:47;55.75;;;28.45;;
7338;SDS011;33747;49.524;8.390;2023-12-07T12:04:13;58.25;;;28.13;;
7338;SDS011;33747;49.524;8.390;2023-12-07T12:06:39;57.08;;;25.83;;
7338;SDS011;33747;49.524;8.390;2023-12-07T12:09:05;50.22;;;25.13;;
7338;SDS011;33747;49.524;8.390;2023-12-07T12:11:30;54.30;;;26.45;;
7338;SDS011;33747;49.524;8.390;2023-12-07T12:13:56;54.85;;;26.27;;
7338;SDS011;33747;49.524;8.390;2023-12-07T12:16:22;61.42;;;26.77;;
7338;SDS011;33747;49.524;8.390;2023-12-07T12:18:48;73.70;;;31.25;;
7338;SDS011;33747;49.524;8.390;2023-12-07T12:21:13;68.30;;;29.85;;
7338;SDS011;33747;49.524;8.390;2023-12-07T12:23:39;60.92;;;27.40;;
7338;SDS011;33747;49.524;8.390;2023-12-07T12:26:05;69.18;;;28.70;;
7338;SDS011;33747;49.524;8.390;2023-12-07T12:28:32;79.85;;;28.27;;
7338;SDS011;33747;49.524;8.390;2023-12-07T12:30:57;64.80;;;28.65;;
7338;SDS011;33747;49.524;8.390;2023-12-07T12:33:23;65.25;;;27.95;;
7338;SDS011;33747;49.524;8.390;2023-12-07T12:36:01;64.95;;;27.80;;
7338;SDS011;33747;49.524;8.390;2023-12-07T12:38:28;78.00;;;25.98;;
7338;SDS011;33747;49.524;8.390;2023-12-07T12:40:54;60.70;;;27.45;;
7338;SDS011;33747;49.524;8.390;2023-12-07T12:43:19;74.80;;;26.85;;
7338;SDS011;33747;49.524;8.390;2023-12-07T12:45:44;65.20;;;25.75;;
7338;SDS011;33747;49.524;8.390;2023-12-07T12:48:11;67.82;;;25.33;;
7338;SDS011;33747;49.524;8.390;2023-12-07T12:50:38;79.55;;;28.15;;
7338;SDS011;33747;49.524;8.390;2023-12-07T12:53:05;69.03;;;27.38;;
7338;SDS011;33747;49.524;8.390;2023-12-07T12:55:32;68.13;;;28.52;;
7338;SDS011;33747;49.524;8.390;2023-12-07T12:57:58;110.32;;;27.73;;
7338;SDS011;33747;49.524;8.390;2023-12-07T13:00:26;86.00;;;28.42;;
7338;SDS011;33747;49.524;8.390;2023-12-07T13:02:52;70.05;;;28.27;;
7338;SDS011;33747;49.524;8.390;2023-12-07T13:05:17;84.75;;;26.00;;
7338;SDS011;33747;49.524;8.390;2023-12-07T13:07:45;74.43;;;25.92;;
7338;SDS011;33747;49.524;8.390;2023-12-07T13:10:13;77.40;;;27.65;;
7338;SDS011;33747;49.524;8.390;2023-12-07T13:12:39;78.72;;;25.95;;
7338;SDS011;33747;49.524;8.390;2023-12-07T13:15:06;74.47;;;24.17;;
7338;SDS011;33747;49.524;8.390;2023-12-07T13:17:32;85.75;;;25.95;;
7338;SDS011;33747;49.524;8.390;2023-12-07T13:19:58;76.93;;;25.73;;
7338;SDS011;33747;49.524;8.390;2023-12-07T13:22:24;93.65;;;25.27;;
7338;SDS011;33747;49.524;8.390;2023-12-07T13:24:49;66.30;;;24.60;;
7338;SDS011;33747;49.524;8.390;2023-12-07T13:27:15;93.88;;;23.77;;
7338;SDS011;33747;49.524;8.390;2023-12-07T13:29:40;74.95;;;24.38;;
7338;SDS011;33747;49.524;8.390;2023-12-07T13:32:06;59.42;;;24.83;;
7338;SDS011;33747;49.524;8.390;2023-12-07T13:34:31;93.15;;;28.85;;
7338;SDS011;33747;49.524;8.390;2023-12-07T13:36:57;66.55;;;25.42;;
7338;SDS011;33747;49.524;8.390;2023-12-07T13:39:22;79.90;;;26.77;;
7338;SDS011;33747;49.524;8.390;2023-12-07T13:41:48;63.97;;;26.63;;
7338;SDS011;33747;49.524;8.390;2023-12-07T13:44:14;80.75;;;27.35;;
7338;SDS011;33747;49.524;8.390;2023-12-07T13:46:42;62.25;;;26.33;;
7338;SDS011;33747;49.524;8.390;2023-12-07T13:49:07;69.32;;;27.63;;
7338;SDS011;33747;49.524;8.390;2023-12-07T13:51:33;70.38;;;27.67;;
7338;SDS011;33747;49.524;8.390;2023-12-07T13:53:58;67.55;;;27.02;;
7338;SDS011;33747;49.524;8.390;2023-12-07T13:56:24;81.20;;;28.17;;
7338;SDS011;33747;49.524;8.390;2023-12-07T13:58:49;64.38;;;27.00;;
7338;SDS011;33747;49.524;8.390;2023-12-07T14:01:16;64.07;;;27.17;;
7338;SDS011;33747;49.524;8.390;2023-12-07T14:03:42;76.68;;;28.20;;
7338;SDS011;33747;49.524;8.390;2023-12-07T14:06:08;74.75;;;29.98;;
7338;SDS011;33747;49.524;8.390;2023-12-07T14:08:33;76.45;;;27.67;;
7338;SDS011;33747;49.524;8.390;2023-12-07T14:10:59;66.82;;;27.95;;
7338;SDS011;33747;49.524;8.390;2023-12-07T14:13:25;64.82;;;28.40;;
7338;SDS011;33747;49.524;8.390;2023-12-07T14:15:51;69.03;;;28.17;;
7338;SDS011;33747;49.524;8.390;2023-12-07T14:18:16;64.55;;;27.88;;
7338;SDS011;33747;49.524;8.390;2023-12-07T14:20:42;55.53;;;27.80;;
7338;SDS011;33747;49.524;8.390;2023-12-07T14:23:07;55.75;;;25.80;;
7338;SDS011;33747;49.524;8.390;2023-12-07T14:25:33;52.63;;;25.17;;
7338;SDS011;33747;49.524;8.390;2023-12-07T14:27:58;51.25;;;23.88;;
7338;SDS011;33747;49.524;8.390;2023-12-07T14:30:23;50.47;;;23.55;;